Time;durP1;ratioP1;P1;durP2;ratioP2;P2;SDS_P1;SDS_P2;PMS_P1;PMS_P2;Temp;Humidity;BMP_temperature;BMP_pressure;BME280_temperature;BME280_humidity;BME280_pressure;Samples;Min_cycle;Max_cycle;Signal;HPM_P1;HPM_P2
2022/06/29 00:02:08;;;;;;;6.47;1.90;;;16.00;99.90;;;;;;5013782;28;20107;-63
2022/06/29 00:04:34;;;;;;;5.13;2.10;;;15.80;99.90;;;;;;5032352;28;20045;-63
2022/06/29 00:07:00;;;;;;;5.35;1.58;;;;;;;;;;5016961;28;20041;-63
2022/06/29 00:09:25;;;;;;;5.50;1.80;;;15.80;99.90;;;;;;5000891;28;20111;-63
2022/06/29 00:11:51;;;;;;;4.22;1.65;;;15.70;99.90;;;;;;5034945;28;20419;-63
2022/06/29 00:14:16;;;;;;;4.35;1.75;;;15.80;99.90;;;;;;5017263;28;20041;-63
2022/06/29 00:16:42;;;;;;;4.25;1.40;;;15.70;99.90;;;;;;5016907;28;20095;-63
2022/06/29 00:19:08;;;;;;;5.57;1.90;;;15.70;99.90;;;;;;5015272;28;20040;-63
2022/06/29 00:21:34;;;;;;;4.95;1.50;;;15.70;99.90;;;;;;5017137;28;20038;-63
2022/06/29 00:23:59;;;;;;;5.10;1.42;;;15.60;99.90;;;;;;5034506;28;20142;-63
2022/06/29 00:26:26;;;;;;;6.55;1.77;;;15.70;99.90;;;;;;5048325;28;20151;-63
2022/06/29 00:28:52;;;;;;;3.47;1.13;;;15.90;99.90;;;;;;5020888;28;20064;-63
2022/06/29 00:31:18;;;;;;;3.45;1.48;;;15.80;99.90;;;;;;5008496;28;20057;-64
2022/06/29 00:33:44;;;;;;;9.07;1.98;;;15.50;99.90;;;;;;5024789;28;20495;-63
2022/06/29 00:36:09;;;;;;;2.90;1.80;;;15.60;99.90;;;;;;5034530;28;20506;-63
2022/06/29 00:38:35;;;;;;;5.82;1.73;;;15.60;99.90;;;;;;5033166;28;20057;-64
2022/06/29 00:41:00;;;;;;;3.58;1.23;;;15.60;99.90;;;;;;5031840;28;20049;-63
2022/06/29 00:43:26;;;;;;;9.13;2.00;;;15.60;99.90;;;;;;5000191;28;20498;-64
2022/06/29 00:45:52;;;;;;;4.18;1.75;;;15.50;99.90;;;;;;5034477;28;20042;-62
2022/06/29 00:48:18;;;;;;;7.05;1.58;;;15.60;99.90;;;;;;5016051;28;20041;-63
2022/06/29 00:50:46;;;;;;;4.00;1.70;;;15.60;99.90;;;;;;5020566;28;20088;-63
2022/06/29 00:53:14;;;;;;;5.05;2.35;;;15.50;99.90;;;;;;5034074;28;20026;-63
2022/06/29 00:55:41;;;;;;;4.45;1.85;;;15.70;99.90;;;;;;5034089;28;20037;-64
2022/06/29 00:58:10;;;;;;;1.98;1.42;;;15.50;99.90;;;;;;5016466;28;20033;-63
2022/06/29 01:00:36;;;;;;;3.97;1.83;;;15.50;99.90;;;;;;5034241;28;20052;-63
2022/06/29 01:03:02;;;;;;;3.83;1.70;;;15.50;99.90;;;;;;4998865;28;1031485;-63
2022/06/29 01:05:31;;;;;;;5.82;2.20;;;15.50;99.90;;;;;;4998176;28;20064;-63
2022/06/29 01:07:58;;;;;;;5.10;1.65;;;15.60;99.90;;;;;;5015157;28;20045;-63
2022/06/29 01:10:24;;;;;;;2.30;1.42;;;15.70;99.90;;;;;;5017529;28;20436;-63
2022/06/29 01:12:51;;;;;;;8.48;2.05;;;15.40;99.90;;;;;;5034916;28;20117;-63
2022/06/29 01:15:17;;;;;;;3.80;1.58;;;;;;;;;;5016837;28;20052;-63
2022/06/29 01:17:44;;;;;;;2.55;1.70;;;15.60;99.90;;;;;;5034975;28;20037;-63
2022/06/29 01:20:10;;;;;;;8.38;2.75;;;15.60;99.90;;;;;;5017763;28;20056;-63
2022/06/29 01:22:37;;;;;;;3.58;2.10;;;15.50;99.90;;;;;;5015119;28;20049;-63
2022/06/29 01:25:03;;;;;;;6.35;2.03;;;15.60;99.90;;;;;;5017064;28;20377;-63
2022/06/29 01:27:29;;;;;;;8.70;2.97;;;15.40;99.90;;;;;;5016840;28;20053;-63
2022/06/29 01:29:55;;;;;;;8.57;2.30;;;15.60;99.90;;;;;;5016854;28;20056;-63
2022/06/29 01:32:21;;;;;;;3.75;2.45;;;15.70;99.90;;;;;;5034780;28;20515;-63
2022/06/29 01:34:47;;;;;;;5.65;2.05;;;15.70;99.90;;;;;;5016907;28;20042;-63
2022/06/29 01:37:13;;;;;;;4.85;1.98;;;15.50;99.90;;;;;;5000125;28;20041;-63
2022/06/29 01:39:39;;;;;;;4.53;2.10;;;15.70;99.90;;;;;;5016889;28;20037;-63
2022/06/29 01:42:06;;;;;;;3.88;2.10;;;15.60;99.90;;;;;;5016672;28;20077;-63
2022/06/29 01:44:33;;;;;;;4.43;2.28;;;15.70;99.90;;;;;;5016721;28;20049;-63
2022/06/29 01:46:59;;;;;;;5.45;2.10;;;15.60;99.90;;;;;;5034511;28;20091;-63
2022/06/29 01:49:25;;;;;;;5.25;2.50;;;15.60;99.90;;;;;;5008750;28;20042;-63
2022/06/29 01:51:51;;;;;;;5.05;2.03;;;15.70;99.90;;;;;;5010757;28;20047;-64
2022/06/29 01:54:17;;;;;;;5.78;2.10;;;15.70;99.90;;;;;;5016939;28;20483;-63
2022/06/29 01:56:43;;;;;;;3.25;2.20;;;;;;;;;;5033543;28;20044;-64
2022/06/29 01:59:08;;;;;;;4.30;2.58;;;15.70;99.90;;;;;;4996114;28;20042;-63
2022/06/29 02:01:34;;;;;;;6.05;2.13;;;15.70;99.90;;;;;;5024585;28;20116;-63
2022/06/29 02:04:00;;;;;;;5.40;1.98;;;15.90;99.90;;;;;;5034165;28;20116;-63
2022/06/29 02:06:26;;;;;;;3.75;2.00;;;15.90;99.90;;;;;;5016137;28;20129;-63
2022/06/29 02:08:52;;;;;;;4.53;2.15;;;15.70;99.90;;;;;;5034099;28;20120;-63
2022/06/29 02:11:19;;;;;;;3.35;2.00;;;15.60;99.90;;;;;;5000016;28;20453;-63
2022/06/29 02:13:46;;;;;;;8.73;2.20;;;15.50;99.90;;;;;;5016358;28;20419;-64
2022/06/29 02:16:12;;;;;;;4.57;2.30;;;15.80;99.90;;;;;;5012693;28;20034;-63
2022/06/29 02:18:37;;;;;;;3.65;2.15;;;15.70;99.90;;;;;;5024446;28;20103;-63
2022/06/29 02:21:06;;;;;;;2.30;1.80;;;15.80;99.90;;;;;;5033302;28;20091;-63
2022/06/29 02:23:31;;;;;;;5.00;2.30;;;15.60;99.90;;;;;;5016373;28;20487;-63
2022/06/29 02:25:57;;;;;;;5.05;2.60;;;15.80;99.90;;;;;;5015766;28;20491;-63
2022/06/29 02:28:23;;;;;;;3.53;2.55;;;17.40;99.90;;;;;;4998761;28;20044;-63
2022/06/29 02:36:16;;;;;;;6.45;2.30;;;15.80;99.90;;;;;;5015867;28;20495;-63
2022/06/29 02:38:42;;;;;;;5.40;2.30;;;15.70;99.90;;;;;;5015863;28;20041;-63
2022/06/29 02:41:07;;;;;;;2.40;2.10;;;15.70;99.90;;;;;;5015729;28;20491;-63
2022/06/29 02:43:33;;;;;;;4.72;2.25;;;15.80;99.90;;;;;;5033353;28;20045;-63
2022/06/29 02:45:59;;;;;;;4.15;2.10;;;15.60;99.90;;;;;;5012069;28;20099;-63
2022/06/29 02:48:24;;;;;;;3.40;2.55;;;15.70;99.90;;;;;;5030981;28;20395;-63
2022/06/29 02:50:50;;;;;;;4.00;2.17;;;15.70;99.90;;;;;;5015493;28;20025;-63
2022/06/29 02:53:15;;;;;;;6.85;2.53;;;15.70;99.90;;;;;;5015282;28;20045;-63
2022/06/29 02:55:41;;;;;;;6.55;2.88;;;15.70;99.90;;;;;;5015688;28;20038;-64
2022/06/29 02:58:06;;;;;;;4.38;2.47;;;15.60;99.90;;;;;;5033038;28;20565;-64
2022/06/29 03:00:32;;;;;;;6.35;2.55;;;15.70;99.90;;;;;;5015295;28;20124;-63
2022/06/29 03:02:58;;;;;;;5.70;3.25;;;15.90;99.90;;;;;;5014981;28;20100;-64
2022/06/29 03:05:23;;;;;;;5.63;2.45;;;15.80;99.90;;;;;;5033264;28;20056;-63
2022/06/29 03:07:49;;;;;;;3.78;2.65;;;15.80;99.90;;;;;;4999095;28;20084;-64
2022/06/29 03:10:14;;;;;;;3.40;2.58;;;15.70;99.90;;;;;;4999244;28;20380;-63
2022/06/29 03:12:40;;;;;;;4.20;2.88;;;15.60;99.90;;;;;;5031368;28;20029;-63
2022/06/29 03:15:08;;;;;;;3.50;2.80;;;15.70;99.90;;;;;;5032850;28;20029;-63
2022/06/29 03:17:34;;;;;;;4.45;2.65;;;15.80;99.90;;;;;;4998670;28;20403;-63
2022/06/29 03:20:03;;;;;;;4.63;3.15;;;15.70;99.90;;;;;;5023443;28;20037;-63
2022/06/29 03:22:28;;;;;;;5.30;2.70;;;15.70;99.90;;;;;;5020525;28;20049;-63
2022/06/29 03:24:54;;;;;;;4.43;2.53;;;15.90;99.90;;;;;;5015384;28;20052;-63
2022/06/29 03:27:20;;;;;;;6.35;2.95;;;;;;;;;;5015069;28;20487;-64
2022/06/29 03:29:45;;;;;;;3.47;2.38;;;16.00;99.90;;;;;;5032825;28;20039;-65
2022/06/29 03:32:11;;;;;;;4.93;2.90;;;15.70;99.90;;;;;;5032463;28;20037;-63
2022/06/29 03:34:36;;;;;;;4.72;2.88;;;15.70;99.90;;;;;;5032263;28;20038;-63
2022/06/29 03:37:02;;;;;;;6.93;3.53;;;15.70;99.90;;;;;;5014739;28;20045;-63
2022/06/29 03:39:28;;;;;;;8.13;3.05;;;15.60;99.90;;;;;;5014616;28;20440;-63
2022/06/29 03:41:53;;;;;;;4.60;3.17;;;16.10;99.90;;;;;;5031634;28;20037;-63
2022/06/29 03:44:19;;;;;;;3.80;2.97;;;15.80;99.90;;;;;;5020391;28;20050;-63
2022/06/29 03:46:44;;;;;;;5.88;3.28;;;15.90;99.90;;;;;;4996661;28;20081;-64
2022/06/29 03:49:10;;;;;;;5.38;3.53;;;15.70;99.90;;;;;;5012792;28;20037;-63
2022/06/29 03:51:35;;;;;;;4.78;3.00;;;15.70;99.90;;;;;;5024659;28;20045;-63
2022/06/29 03:54:01;;;;;;;4.78;3.10;;;15.90;99.90;;;;;;5014714;28;20116;-63
2022/06/29 03:56:26;;;;;;;5.00;3.30;;;15.90;99.90;;;;;;5032346;28;20029;-64
2022/06/29 03:58:52;;;;;;;4.80;3.10;;;;;;;;;;5032597;28;20491;-64
2022/06/29 04:01:18;;;;;;;5.95;3.03;;;15.60;99.90;;;;;;5014347;28;20041;-65
2022/06/29 04:03:43;;;;;;;3.50;2.67;;;15.50;99.90;;;;;;5032205;28;20060;-63
2022/06/29 04:06:13;;;;;;;4.65;3.05;;;15.50;99.90;;;;;;4998312;28;20401;-63
2022/06/29 04:08:39;;;;;;;7.72;3.40;;;15.50;99.90;;;;;;5014672;28;20044;-63
2022/06/29 04:11:48;;;;;;;5.75;3.15;;;15.50;99.90;;;;;;5014536;28;20108;-63
2022/06/29 04:13:54;;;;;;;6.57;2.97;;;15.50;99.90;;;;;;5030055;28;20046;-63
2022/06/29 04:16:20;;;;;;;4.07;3.60;;;15.50;99.90;;;;;;5020806;28;20412;-63
2022/06/29 04:18:46;;;;;;;7.45;3.58;;;15.40;99.90;;;;;;5011886;28;20038;-64
2022/06/29 04:21:12;;;;;;;5.63;3.13;;;15.60;99.90;;;;;;5010737;28;20546;-63
2022/06/29 04:23:37;;;;;;;5.05;3.28;;;15.50;99.90;;;;;;5012264;28;20037;-63
2022/06/29 04:26:03;;;;;;;5.00;3.13;;;15.70;99.90;;;;;;4994964;28;20045;-63
2022/06/29 04:28:28;;;;;;;6.40;3.35;;;15.70;99.90;;;;;;4994453;28;20053;-63
2022/06/29 04:30:54;;;;;;;4.18;3.17;;;15.70;99.90;;;;;;5018509;28;20117;-63
2022/06/29 04:33:20;;;;;;;5.60;3.28;;;15.80;99.90;;;;;;5023683;28;20140;-63
2022/06/29 04:35:45;;;;;;;4.97;3.45;;;15.40;99.90;;;;;;5014524;28;20045;-62
2022/06/29 04:38:11;;;;;;;4.13;3.28;;;15.70;99.90;;;;;;4999169;28;20077;-62
2022/06/29 04:40:36;;;;;;;4.80;3.75;;;15.90;99.90;;;;;;5004750;28;20092;-62
2022/06/29 04:43:02;;;;;;;4.43;3.00;;;15.80;99.90;;;;;;5015976;28;20439;-63
2022/06/29 04:48:12;;;;;;;6.03;3.22;;;16.00;99.90;;;;;;5007134;28;20408;-62
2022/06/29 04:50:37;;;;;;;5.15;3.53;;;16.10;99.90;;;;;;5016133;28;20048;-63
2022/06/29 04:53:03;;;;;;;4.15;3.28;;;16.20;99.90;;;;;;5010066;28;20458;-63
2022/06/29 04:55:29;;;;;;;3.90;3.35;;;16.10;99.90;;;;;;5000986;28;20415;-63
2022/06/29 04:57:57;;;;;;;4.45;3.30;;;16.40;99.90;;;;;;4988669;28;20041;-63
2022/06/29 05:00:23;;;;;;;5.97;3.20;;;16.50;99.90;;;;;;5001263;28;20403;-63
2022/06/29 05:02:48;;;;;;;6.57;3.55;;;16.80;99.90;;;;;;5000829;28;20054;-63
2022/06/29 05:05:14;;;;;;;4.22;3.40;;;16.70;99.90;;;;;;4983985;28;20544;-64
2022/06/29 05:07:39;;;;;;;4.57;3.38;;;17.20;99.90;;;;;;5001736;28;20038;-64
2022/06/29 05:10:06;;;;;;;4.18;3.10;;;17.10;99.90;;;;;;5001831;28;20046;-64
2022/06/29 05:12:31;;;;;;;4.75;2.25;;;17.90;99.90;;;;;;4992095;28;20045;-63
2022/06/29 05:14:57;;;;;;;4.63;2.75;;;18.30;99.90;;;;;;5001957;28;20137;-63
2022/06/29 05:17:22;;;;;;;4.72;2.33;;;18.50;99.90;;;;;;5003123;28;20038;-63
2022/06/29 05:19:48;;;;;;;5.10;2.72;;;18.60;99.90;;;;;;5006247;28;20077;-62
2022/06/29 05:22:13;;;;;;;5.88;2.65;;;18.60;99.90;;;;;;4986431;28;20049;-62
2022/06/29 05:24:39;;;;;;;3.08;2.60;;;18.70;99.90;;;;;;5002574;28;20043;-62
2022/06/29 05:27:05;;;;;;;4.03;2.45;;;18.60;99.90;;;;;;5003772;28;20137;-62
2022/06/29 05:29:31;;;;;;;4.82;2.65;;;18.60;99.90;;;;;;4986520;28;20388;-62
2022/06/29 05:31:57;;;;;;;3.63;2.30;;;18.40;99.90;;;;;;5002874;28;20076;-62
2022/06/29 05:34:23;;;;;;;6.90;2.40;;;18.40;99.90;;;;;;5007377;28;20073;-63
2022/06/29 05:36:48;;;;;;;2.60;2.15;;;18.40;99.90;;;;;;5019525;28;20041;-62
2022/06/29 05:39:14;;;;;;;5.30;2.50;;;18.60;99.90;;;;;;5019028;28;20048;-62
2022/06/29 05:41:40;;;;;;;5.43;2.38;;;18.70;99.90;;;;;;4997805;28;20141;-63
2022/06/29 05:44:05;;;;;;;2.97;2.13;;;18.90;99.90;;;;;;4987426;28;20052;-62
2022/06/29 05:46:31;;;;;;;4.15;2.17;;;18.80;99.90;;;;;;4987138;28;20511;-62
2022/06/29 05:48:58;;;;;;;2.88;2.15;;;18.90;99.90;;;;;;5004805;28;20415;-63
2022/06/29 05:51:24;;;;;;;6.07;2.40;;;19.20;99.90;;;;;;5010569;28;20052;-63
2022/06/29 05:53:49;;;;;;;4.20;2.10;;;19.00;99.90;;;;;;5020421;28;20041;-63
2022/06/29 05:56:15;;;;;;;3.30;2.10;;;19.30;99.90;;;;;;4998117;28;20045;-63
2022/06/29 05:58:41;;;;;;;3.92;1.75;;;19.70;99.90;;;;;;4996618;28;20176;-63
2022/06/29 06:01:09;;;;;;;4.57;2.03;;;19.50;99.90;;;;;;5016328;28;20034;-63
2022/06/29 06:03:34;;;;;;;3.75;1.95;;;19.60;99.90;;;;;;5018451;28;20104;-63
2022/06/29 06:06:00;;;;;;;3.53;1.80;;;19.90;99.90;;;;;;5013676;28;20042;-63
2022/06/29 06:08:25;;;;;;;4.80;1.25;;;20.10;99.90;;;;;;5020771;28;20041;-63
2022/06/29 06:10:51;;;;;;;3.50;1.33;;;20.40;99.90;;;;;;5015724;28;20037;-63
2022/06/29 06:13:17;;;;;;;3.00;1.48;;;20.40;99.90;;;;;;5009896;28;20104;-62
2022/06/29 06:15:42;;;;;;;2.78;1.48;;;21.80;99.90;;;;;;5010144;28;20034;-63
2022/06/29 06:18:08;;;;;;;3.55;1.42;;;20.70;99.90;;;;;;5009952;28;20559;-63
2022/06/29 06:20:34;;;;;;;4.35;1.40;;;20.90;99.90;;;;;;4991738;28;20056;-62
2022/06/29 06:22:59;;;;;;;3.97;1.27;;;20.80;99.90;;;;;;5009445;28;20033;-63
2022/06/29 06:25:27;;;;;;;3.45;1.40;;;20.80;99.90;;;;;;5011354;28;20072;-63
2022/06/29 06:27:52;;;;;;;2.03;1.15;;;21.20;99.90;;;;;;5010789;28;20081;-63
2022/06/29 06:30:18;;;;;;;3.97;1.50;;;21.00;99.90;;;;;;4990767;28;20579;-64
2022/06/29 06:32:44;;;;;;;2.45;0.98;;;19.80;99.90;;;;;;5008116;28;20076;-63
2022/06/29 06:35:10;;;;;;;3.35;1.10;;;21.20;99.90;;;;;;4991236;28;20049;-64
2022/06/29 06:37:36;;;;;;;3.70;1.20;;;21.60;99.90;;;;;;5008134;28;20060;-63
2022/06/29 06:42:45;;;;;;;5.30;1.40;;;21.70;99.90;;;;;;5008913;28;20128;-63
2022/06/29 06:45:11;;;;;;;2.60;1.15;;;21.20;99.90;;;;;;4988541;28;20102;-63
2022/06/29 06:47:36;;;;;;;5.53;1.40;;;21.10;99.90;;;;;;4991246;28;20151;-63
2022/06/29 06:50:03;;;;;;;4.40;1.40;;;20.90;99.90;;;;;;4991072;28;20128;-62
2022/06/29 06:52:29;;;;;;;2.58;1.63;;;21.10;99.90;;;;;;5007156;28;20509;-62
2022/06/29 06:54:55;;;;;;;5.75;1.23;;;21.90;99.90;;;;;;5008789;28;20045;-63
2022/06/29 06:57:23;;;;;;;3.20;1.60;;;20.90;99.90;;;;;;5009848;28;20055;-63
2022/06/29 06:59:53;;;;;;;5.20;1.58;;;20.90;99.90;;;;;;5008892;28;20478;-63
2022/06/29 07:02:19;;;;;;;4.28;0.90;;;21.00;99.90;;;;;;5008425;28;20054;-63
2022/06/29 07:04:46;;;;;;;4.60;1.70;;;19.70;99.90;;;;;;4990715;28;20068;-63
2022/06/29 07:07:12;;;;;;;2.65;1.13;;;21.10;99.90;;;;;;5008013;28;20039;-63
2022/06/29 07:09:38;;;;;;;3.30;1.08;;;21.30;99.90;;;;;;5008769;28;20503;-63
2022/06/29 07:12:04;;;;;;;4.75;1.42;;;21.30;99.90;;;;;;4992843;28;20055;-63
2022/06/29 07:14:30;;;;;;;7.13;1.50;;;21.40;99.90;;;;;;5008188;28;20048;-62
2022/06/29 07:16:56;;;;;;;5.10;0.88;;;21.50;99.90;;;;;;4989713;28;20215;-62
2022/06/29 07:19:22;;;;;;;5.07;1.30;;;21.20;99.90;;;;;;5007787;28;20492;-61
2022/06/29 07:21:48;;;;;;;2.97;1.10;;;21.40;99.90;;;;;;5006374;28;20049;-61
2022/06/29 07:24:14;;;;;;;5.55;1.20;;;21.20;99.90;;;;;;5006866;28;20041;-61
2022/06/29 07:26:39;;;;;;;1.92;1.10;;;21.30;99.90;;;;;;4989840;28;20053;-61
2022/06/29 07:29:05;;;;;;;4.72;1.23;;;21.50;99.90;;;;;;4991753;28;20063;-62
2022/06/29 07:31:30;;;;;;;1.98;1.00;;;21.50;99.90;;;;;;5011106;28;20052;-61
2022/06/29 07:33:56;;;;;;;3.22;0.90;;;21.50;99.90;;;;;;5009952;28;20927;-62
2022/06/29 07:36:21;;;;;;;1.38;0.98;;;21.60;99.90;;;;;;5007323;28;20037;-63
2022/06/29 07:38:47;;;;;;;2.05;0.98;;;21.40;99.90;;;;;;5007055;28;20053;-63
2022/06/29 07:41:13;;;;;;;3.47;1.00;;;21.70;99.90;;;;;;4988963;28;20053;-63
2022/06/29 07:43:38;;;;;;;2.35;0.85;;;21.60;99.90;;;;;;4990003;28;20050;-63
2022/06/29 07:46:04;;;;;;;4.70;1.00;;;21.80;99.90;;;;;;5007366;28;20490;-63
2022/06/29 07:48:30;;;;;;;3.95;1.08;;;21.80;99.90;;;;;;5006032;28;20057;-63
2022/06/29 07:50:56;;;;;;;2.33;0.90;;;21.90;99.90;;;;;;5004976;28;20038;-63
2022/06/29 07:53:22;;;;;;;4.45;0.82;;;21.80;99.90;;;;;;4988739;28;20415;-63
2022/06/29 07:55:47;;;;;;;5.50;1.00;;;22.10;99.90;;;;;;5001523;28;20045;-62
2022/06/29 07:58:16;;;;;;;2.80;0.95;;;21.90;99.90;;;;;;5008183;28;20084;-62
2022/06/29 08:00:42;;;;;;;2.65;1.10;;;22.10;99.90;;;;;;4990507;28;20052;-62
2022/06/29 08:03:08;;;;;;;2.72;0.85;;;22.20;99.90;;;;;;5007287;28;20057;-63
2022/06/29 08:05:35;;;;;;;1.13;0.60;;;22.20;99.90;;;;;;5007301;28;20041;-63
2022/06/29 08:08:01;;;;;;;1.52;0.73;;;22.30;99.90;;;;;;4986425;28;20752;-64
2022/06/29 08:10:31;;;;;;;7.25;1.13;;;22.40;99.90;;;;;;4986715;28;20060;-64
2022/06/29 08:12:57;;;;;;;4.20;1.10;;;22.80;99.90;;;;;;4987021;28;20503;-63
2022/06/29 08:15:23;;;;;;;4.97;0.88;;;22.70;99.90;;;;;;4985798;28;20052;-63
2022/06/29 08:17:48;;;;;;;3.33;1.25;;;22.80;99.90;;;;;;5005349;28;20602;-64
2022/06/29 08:20:14;;;;;;;3.88;0.75;;;22.60;99.90;;;;;;5003914;28;20067;-64
2022/06/29 08:22:40;;;;;;;2.47;0.60;;;22.80;99.90;;;;;;4987388;28;20045;-64
2022/06/29 08:25:06;;;;;;;9.38;1.77;;;22.70;99.90;;;;;;5004698;28;20106;-63
2022/06/29 08:27:33;;;;;;;2.88;0.82;;;22.70;99.90;;;;;;5010608;28;20120;-63
2022/06/29 08:30:01;;;;;;;2.60;0.93;;;22.70;99.90;;;;;;5010503;28;20042;-63
2022/06/29 08:32:27;;;;;;;2.53;1.13;;;23.00;99.90;;;;;;4992254;28;20562;-63
2022/06/29 08:34:52;;;;;;;2.92;1.00;;;23.30;99.90;;;;;;4992287;28;20053;-63
2022/06/29 08:37:21;;;;;;;4.72;1.10;;;21.80;99.90;;;;;;4992529;28;20049;-63
2022/06/29 08:39:46;;;;;;;2.53;0.95;;;23.40;99.90;;;;;;5010281;28;20049;-63
2022/06/29 08:42:13;;;;;;;2.95;1.00;;;23.00;99.90;;;;;;4992409;28;20104;-63
2022/06/29 08:44:39;;;;;;;2.13;0.70;;;23.20;99.90;;;;;;5009527;28;20156;-63
2022/06/29 08:47:06;;;;;;;5.68;1.10;;;23.00;99.90;;;;;;5008534;28;20079;-63
2022/06/29 08:49:32;;;;;;;3.33;1.80;;;23.50;99.90;;;;;;5009474;28;20041;-63
2022/06/29 08:51:59;;;;;;;3.85;0.82;;;23.30;99.90;;;;;;4991369;28;20735;-62
2022/06/29 08:54:25;;;;;;;4.20;1.10;;;23.00;99.90;;;;;;4990501;28;20080;-63
2022/06/29 08:56:58;;;;;;;3.75;0.98;;;23.70;99.90;;;;;;4991473;28;20049;-63
2022/06/29 08:59:23;;;;;;;3.10;0.70;;;23.30;99.90;;;;;;5009726;28;20060;-63
2022/06/29 09:01:50;;;;;;;2.97;0.77;;;22.60;99.90;;;;;;5008467;28;20097;-63
2022/06/29 09:04:17;;;;;;;13.43;1.25;;;23.60;99.90;;;;;;4993219;28;20115;-62
2022/06/29 09:06:43;;;;;;;3.75;1.05;;;23.40;99.90;;;;;;5009032;28;20055;-63
2022/06/29 09:09:09;;;;;;;3.65;1.00;;;23.70;99.90;;;;;;5010244;28;20132;-63
2022/06/29 09:11:39;;;;;;;2.20;0.65;;;23.60;99.90;;;;;;4991457;28;20055;-63
2022/06/29 09:14:09;;;;;;;4.97;1.10;;;23.80;99.90;;;;;;5009801;28;20494;-63
2022/06/29 09:16:56;;;;;;;1.73;0.90;;;23.60;99.90;;;;;;5008099;28;20101;-63
2022/06/29 09:19:27;;;;;;;3.63;1.60;;;24.00;99.90;;;;;;4992528;28;20664;-64
2022/06/29 09:21:55;;;;;;;3.50;1.05;;;24.10;99.90;;;;;;5012571;28;20538;-64
2022/06/29 09:24:24;;;;;;;2.92;1.00;;;24.10;99.90;;;;;;4995638;28;20087;-63
2022/06/29 09:26:55;;;;;;;3.22;0.93;;;23.90;99.90;;;;;;5011455;28;20064;-64
2022/06/29 09:29:29;;;;;;;2.65;1.40;;;23.70;99.90;;;;;;4994898;28;20108;-64
2022/06/29 09:32:06;;;;;;;2.53;1.02;;;23.80;99.90;;;;;;5007674;28;20045;-64
2022/06/29 09:34:36;;;;;;;3.25;0.95;;;24.00;99.90;;;;;;4992017;28;20045;-63
2022/06/29 09:37:03;;;;;;;3.15;1.13;;;23.90;99.90;;;;;;5008502;28;20029;-64
2022/06/29 09:39:49;;;;;;;4.43;1.33;;;24.30;99.90;;;;;;4977417;28;20049;-64
2022/06/29 09:42:28;;;;;;;3.47;1.08;;;24.30;99.90;;;;;;4991943;28;20052;-63
2022/06/29 09:44:54;;;;;;;3.20;1.00;;;24.40;99.90;;;;;;5006838;28;20068;-64
2022/06/29 09:47:22;;;;;;;3.75;1.02;;;24.30;99.90;;;;;;4991168;28;20846;-65
2022/06/29 09:49:52;;;;;;;2.50;0.98;;;24.50;99.90;;;;;;5008014;28;20041;-63
2022/06/29 09:52:19;;;;;;;3.58;1.42;;;23.20;99.90;;;;;;4991183;28;20060;-64
2022/06/29 09:54:50;;;;;;;4.10;1.10;;;24.50;99.90;;;;;;5010332;28;20037;-64
2022/06/29 09:57:19;;;;;;;6.18;1.40;;;24.60;99.90;;;;;;5009606;28;20049;-64
2022/06/29 10:02:39;;;;;;;2.58;0.90;;;24.80;99.90;;;;;;5011393;28;20069;-62
2022/06/29 10:05:15;;;;;;;2.90;0.98;;;24.90;99.90;;;;;;5013706;28;21318;-63
2022/06/29 10:07:45;;;;;;;1.58;0.75;;;24.90;99.90;;;;;;5014976;28;20050;-63
2022/06/29 10:10:13;;;;;;;9.60;0.95;;;24.70;99.90;;;;;;5014797;28;20759;-63
2022/06/29 10:16:29;;;;;;;2.30;0.90;;;25.00;99.90;;;;;;4995048;28;20109;-62
2022/06/29 10:19:10;;;;;;;4.32;1.08;;;25.00;99.90;;;;;;4995869;28;20045;-62
2022/06/29 10:21:35;;;;;;;3.75;1.10;;;25.10;99.90;;;;;;4995560;28;20046;-62
2022/06/29 10:24:02;;;;;;;1.60;1.02;;;25.00;99.90;;;;;;5013423;28;20052;-63
2022/06/29 10:26:30;;;;;;;1.85;0.90;;;26.10;99.90;;;;;;4996191;28;20049;-62
2022/06/29 10:29:16;;;;;;;1.58;0.65;;;25.30;99.90;;;;;;4995007;28;20499;-64
2022/06/29 10:31:51;;;;;;;2.70;1.00;;;25.10;99.90;;;;;;4975492;28;20064;-62
2022/06/29 10:34:32;;;;;;;3.22;0.80;;;25.00;99.90;;;;;;4994849;28;20049;-64
2022/06/29 10:37:09;;;;;;;1.92;0.80;;;25.20;99.90;;;;;;5008789;28;20151;-63
2022/06/29 10:39:43;;;;;;;3.70;0.77;;;25.30;99.90;;;;;;4990146;28;20042;-64
2022/06/29 10:45:06;;;;;;;3.33;0.80;;;25.50;99.90;;;;;;4989924;28;19928;-63
2022/06/29 10:47:35;;;;;;;2.80;0.57;;;25.70;99.90;;;;;;4988953;28;20053;-64
2022/06/29 10:52:44;;;;;;;2.17;0.52;;;27.30;99.90;;;;;;4988597;28;20056;-64
2022/06/29 10:55:11;;;;;;;2.67;0.65;;;26.60;99.90;;;;;;4989561;28;20055;-63
2022/06/29 10:57:42;;;;;;;2.55;0.70;;;25.60;99.90;;;;;;5006580;28;20529;-63
2022/06/29 11:00:09;;;;;;;2.22;0.95;;;25.80;99.90;;;;;;5008119;28;20041;-63
2022/06/29 11:02:38;;;;;;;1.95;0.93;;;25.90;99.90;;;;;;5007195;28;20067;-64
2022/06/29 11:05:05;;;;;;;3.10;0.65;;;26.00;99.90;;;;;;5007408;28;20048;-63
2022/06/29 11:12:59;;;;;;;2.08;0.77;;;26.30;99.90;;;;;;4990836;28;20053;-63
2022/06/29 11:15:48;;;;;;;3.65;0.90;;;26.30;99.90;;;;;;4989380;28;20053;-64
2022/06/29 11:18:17;;;;;;;2.75;0.75;;;26.00;99.90;;;;;;5005414;28;20139;-64
2022/06/29 11:20:46;;;;;;;2.00;0.80;;;26.30;99.90;;;;;;5008388;28;21607;-64
2022/06/29 11:23:13;;;;;;;2.88;0.90;;;26.30;99.90;;;;;;4992278;28;20052;-63
2022/06/29 11:25:42;;;;;;;1.55;1.00;;;26.40;99.90;;;;;;4993600;28;20048;-63
2022/06/29 11:28:07;;;;;;;1.55;0.60;;;26.50;99.90;;;;;;4994077;28;20048;-64
2022/06/29 11:30:33;;;;;;;2.13;0.57;;;26.40;99.90;;;;;;5011778;28;20061;-63
2022/06/29 11:33:12;;;;;;;2.20;0.80;;;26.90;99.90;;;;;;5011708;28;20080;-63
2022/06/29 11:35:39;;;;;;;1.42;0.60;;;26.50;99.90;;;;;;4993186;28;20165;-63
2022/06/29 11:38:07;;;;;;;1.92;0.77;;;26.60;99.90;;;;;;5008843;28;20460;-64
2022/06/29 11:40:36;;;;;;;2.75;0.98;;;26.60;99.90;;;;;;4992179;28;20052;-63
2022/06/29 11:43:07;;;;;;;3.80;0.70;;;26.90;99.90;;;;;;4973869;28;20053;-63
2022/06/29 11:45:49;;;;;;;1.30;0.88;;;26.30;99.90;;;;;;5008539;28;20095;-63
2022/06/29 11:48:23;;;;;;;2.17;0.90;;;26.30;99.90;;;;;;4990440;28;20057;-63
2022/06/29 11:50:53;;;;;;;2.40;1.17;;;27.00;99.90;;;;;;5006621;28;20243;-63
2022/06/29 11:53:43;;;;;;;3.78;0.93;;;26.30;99.90;;;;;;5005055;28;20053;-63
2022/06/29 11:56:14;;;;;;;1.90;1.15;;;26.20;99.90;;;;;;5004496;28;20657;-63
2022/06/29 11:58:53;;;;;;;2.00;0.85;;;26.20;99.90;;;;;;5003751;28;20068;-63
2022/06/29 12:01:21;;;;;;;3.35;0.90;;;26.20;99.90;;;;;;4991134;28;20084;-64
2022/06/29 12:03:58;;;;;;;3.33;1.20;;;26.20;99.90;;;;;;4992255;28;20064;-63
2022/06/29 12:06:34;;;;;;;2.42;1.40;;;26.20;99.90;;;;;;5008020;28;20861;-63
2022/06/29 12:08:59;;;;;;;2.15;0.80;;;27.10;99.90;;;;;;5008628;28;20064;-63
2022/06/29 12:11:25;;;;;;;2.25;1.30;;;26.40;99.90;;;;;;5008370;28;20037;-64
2022/06/29 12:13:50;;;;;;;4.43;1.40;;;26.40;99.90;;;;;;5009201;28;20042;-64
2022/06/29 12:16:16;;;;;;;3.28;1.73;;;26.50;99.90;;;;;;5009045;28;20044;-63
2022/06/29 12:18:42;;;;;;;2.03;1.40;;;26.30;99.90;;;;;;5009147;28;20050;-64
2022/06/29 12:21:08;;;;;;;2.97;1.48;;;26.20;99.90;;;;;;4990785;28;20051;-64
2022/06/29 12:23:34;;;;;;;2.90;1.85;;;26.50;99.90;;;;;;5009553;28;20057;-63
2022/06/29 12:25:59;;;;;;;4.82;1.60;;;26.40;99.90;;;;;;5009136;28;20055;-64
2022/06/29 12:28:25;;;;;;;2.53;1.63;;;26.40;99.90;;;;;;5007077;28;20037;-64
2022/06/29 12:30:51;;;;;;;5.57;1.40;;;26.10;99.90;;;;;;4990065;28;20065;-63
2022/06/29 12:33:18;;;;;;;3.65;2.00;;;26.30;99.90;;;;;;5007051;28;20156;-64
2022/06/29 12:35:43;;;;;;;3.83;1.95;;;27.90;99.90;;;;;;5008308;28;20043;-64
2022/06/29 12:38:09;;;;;;;4.68;1.65;;;26.40;99.90;;;;;;5007891;28;20045;-64
2022/06/29 12:40:35;;;;;;;3.70;2.15;;;26.40;99.90;;;;;;5007355;28;20132;-64
2022/06/29 12:43:01;;;;;;;3.53;2.05;;;26.40;99.90;;;;;;4988969;28;20057;-64
2022/06/29 12:45:27;;;;;;;2.95;1.77;;;26.50;99.90;;;;;;4990066;28;20711;-65
2022/06/29 12:47:56;;;;;;;2.83;2.17;;;26.30;99.90;;;;;;4989411;28;20053;-64
2022/06/29 12:50:22;;;;;;;2.90;1.95;;;26.00;99.90;;;;;;4992161;28;20057;-64
2022/06/29 12:52:49;;;;;;;4.68;2.05;;;26.30;99.90;;;;;;4989820;28;20057;-64
2022/06/29 12:55:17;;;;;;;3.45;2.30;;;27.70;99.90;;;;;;4991990;28;20107;-65
2022/06/29 12:57:45;;;;;;;3.53;1.98;;;26.10;99.90;;;;;;4990928;28;20053;-64
2022/06/29 13:00:13;;;;;;;2.83;2.03;;;26.00;99.90;;;;;;5009381;28;20049;-63
2022/06/29 13:02:42;;;;;;;2.75;2.10;;;26.20;99.90;;;;;;5003345;28;20792;-64
2022/06/29 13:05:08;;;;;;;3.50;2.70;;;26.40;99.90;;;;;;5003648;28;20060;-64
2022/06/29 13:07:34;;;;;;;2.83;1.92;;;26.00;99.90;;;;;;4983374;28;20046;-64
2022/06/29 13:10:00;;;;;;;4.00;2.00;;;27.60;99.90;;;;;;5006313;28;20542;-64
2022/06/29 13:12:26;;;;;;;5.63;2.00;;;27.70;99.90;;;;;;4984752;28;20049;-64
2022/06/29 13:14:53;;;;;;;3.53;2.80;;;26.20;99.90;;;;;;5003325;28;20433;-64
2022/06/29 13:17:19;;;;;;;4.82;2.22;;;26.30;99.90;;;;;;4984831;28;20045;-64